createdAt,value
2018-08-22T00:01:27.647Z,20.50
2018-08-22T00:03:54.911Z,20.50
2018-08-22T00:06:22.223Z,20.50
2018-08-22T00:08:49.634Z,20.50
2018-08-22T00:11:16.955Z,20.50
2018-08-22T00:13:44.548Z,20.50
2018-08-22T00:16:11.941Z,20.40
2018-08-22T00:18:39.353Z,20.40
2018-08-22T00:21:06.713Z,20.30
2018-08-22T00:23:34.280Z,20.30
2018-08-22T00:26:01.772Z,20.30
2018-08-22T00:28:29.156Z,20.30
2018-08-22T00:30:56.592Z,20.10
2018-08-22T00:33:23.930Z,20.10
2018-08-22T00:35:51.317Z,20.10
2018-08-22T00:38:18.691Z,20.10
2018-08-22T00:40:46.040Z,20.10
2018-08-22T00:43:13.429Z,20.10
2018-08-22T00:45:40.792Z,20.10
2018-08-22T00:48:08.163Z,20.10
2018-08-22T00:50:35.680Z,20.10
2018-08-22T00:53:03.107Z,20.20
2018-08-22T00:55:30.420Z,20.10
2018-08-22T00:57:57.744Z,20.10
2018-08-22T01:00:25.241Z,20.10
2018-08-22T01:02:52.583Z,20.10
2018-08-22T01:05:19.920Z,20.10
2018-08-22T01:07:47.308Z,20.10
2018-08-22T01:10:14.655Z,20.00
2018-08-22T01:12:42.033Z,20.00
2018-08-22T01:15:09.433Z,19.90
2018-08-22T01:17:36.782Z,19.90
2018-08-22T01:20:05.189Z,20.00
2018-08-22T01:22:32.621Z,20.00
2018-08-22T01:24:59.933Z,20.00
2018-08-22T01:27:27.202Z,19.90
2018-08-22T01:29:54.589Z,19.90
2018-08-22T01:32:22.358Z,19.90
2018-08-22T01:34:50.463Z,19.90
2018-08-22T01:37:17.770Z,19.90
2018-08-22T01:39:45.470Z,19.90
2018-08-22T01:42:12.750Z,19.90
2018-08-22T01:44:40.063Z,19.90
2018-08-22T01:47:07.393Z,19.80
2018-08-22T01:49:34.697Z,19.70
2018-08-22T01:52:02.338Z,19.80
2018-08-22T01:54:29.711Z,19.80
2018-08-22T01:56:56.983Z,19.80
2018-08-22T01:59:24.294Z,19.80
2018-08-22T02:01:51.582Z,19.70
2018-08-22T02:04:18.997Z,19.70
2018-08-22T02:06:46.316Z,19.70
2018-08-22T02:09:13.674Z,19.70
2018-08-22T02:11:41.025Z,19.60
2018-08-22T02:14:09.594Z,19.60
2018-08-22T02:16:37.039Z,19.60
2018-08-22T02:19:05.047Z,19.50
2018-08-22T02:21:32.808Z,19.50
2018-08-22T02:24:00.118Z,19.50
2018-08-22T02:26:27.446Z,19.50
2018-08-22T02:28:54.726Z,19.40
2018-08-22T02:31:22.033Z,19.40
2018-08-22T02:33:49.316Z,19.40
2018-08-22T02:36:16.618Z,19.30
2018-08-22T02:38:43.903Z,19.30
2018-08-22T02:41:11.213Z,19.30
2018-08-22T02:43:38.509Z,19.20
2018-08-22T02:46:05.855Z,19.20
2018-08-22T02:48:37.702Z,19.20
2018-08-22T02:51:05.014Z,19.10
2018-08-22T02:53:32.285Z,19.10
2018-08-22T02:55:59.579Z,19.10
2018-08-22T02:58:26.849Z,19.10
2018-08-22T03:00:54.147Z,19.10
2018-08-22T03:03:21.436Z,19.00
2018-08-22T03:05:48.834Z,18.90
2018-08-22T03:08:16.115Z,19.10
2018-08-22T03:10:43.438Z,19.10
2018-08-22T03:13:10.761Z,19.10
2018-08-22T03:15:38.067Z,19.00
2018-08-22T03:18:05.393Z,18.90
2018-08-22T03:20:32.723Z,18.90
2018-08-22T03:23:00.002Z,19.00
2018-08-22T03:25:27.320Z,19.00
2018-08-22T03:27:54.625Z,19.00
2018-08-22T03:30:21.969Z,19.00
2018-08-22T03:32:49.306Z,18.90
2018-08-22T03:35:16.614Z,18.90
2018-08-22T03:37:43.898Z,18.90
2018-08-22T03:40:11.205Z,18.90
2018-08-22T03:42:38.461Z,18.90
2018-08-22T03:45:05.746Z,18.90
2018-08-22T03:47:33.036Z,18.90
2018-08-22T03:50:00.335Z,18.80
2018-08-22T03:52:27.609Z,18.80
2018-08-22T03:54:54.933Z,18.80
2018-08-22T03:57:22.209Z,18.70
2018-08-22T03:59:49.614Z,18.80
2018-08-22T04:02:17.001Z,18.80
2018-08-22T04:04:44.323Z,18.70
2018-08-22T04:07:11.611Z,18.70
2018-08-22T04:09:38.877Z,18.70
2018-08-22T04:12:06.178Z,18.60
2018-08-22T04:14:33.498Z,18.60
2018-08-22T04:17:00.936Z,18.60
2018-08-22T04:19:28.213Z,18.60
2018-08-22T04:21:55.502Z,18.60
2018-08-22T04:24:22.757Z,18.60
2018-08-22T04:26:50.032Z,18.60
2018-08-22T04:29:17.334Z,18.50
2018-08-22T04:31:44.688Z,18.40
2018-08-22T04:34:11.986Z,18.40
2018-08-22T04:36:39.274Z,18.40
2018-08-22T04:39:07.349Z,18.40
2018-08-22T04:41:34.641Z,18.40
2018-08-22T04:44:01.962Z,18.40
2018-08-22T04:46:29.282Z,18.40
2018-08-22T04:48:56.649Z,18.40
2018-08-22T04:51:23.919Z,18.40
2018-08-22T04:53:51.595Z,18.30
2018-08-22T04:56:18.878Z,18.20
2018-08-22T04:58:46.199Z,18.10
2018-08-22T05:01:13.486Z,18.20
2018-08-22T05:03:40.786Z,18.50
2018-08-22T05:06:08.082Z,18.70
2018-08-22T05:08:35.381Z,18.80
2018-08-22T05:11:02.673Z,18.80
2018-08-22T05:13:29.961Z,18.90
2018-08-22T05:15:57.217Z,18.90
2018-08-22T05:18:24.538Z,19.20
2018-08-22T05:20:51.850Z,20.10
2018-08-22T05:23:19.181Z,20.80
2018-08-22T05:25:46.458Z,21.00
2018-08-22T05:28:13.718Z,20.90
2018-08-22T05:30:41.143Z,20.90
2018-08-22T05:33:08.422Z,20.70
2018-08-22T05:35:35.737Z,20.10
2018-08-22T05:38:03.145Z,19.80
2018-08-22T05:40:30.498Z,19.60
2018-08-22T05:42:57.752Z,19.50
2018-08-22T05:45:25.005Z,19.30
2018-08-22T05:47:52.373Z,19.30
2018-08-22T05:50:19.646Z,19.30
2018-08-22T05:52:46.945Z,19.30
2018-08-22T05:55:14.265Z,19.30
2018-08-22T05:57:41.625Z,19.40
2018-08-22T06:00:08.802Z,19.50
2018-08-22T06:02:36.094Z,19.60
2018-08-22T06:05:03.572Z,19.60
2018-08-22T06:07:30.912Z,19.70
2018-08-22T06:09:58.330Z,19.60
2018-08-22T06:12:25.634Z,19.70
2018-08-22T06:14:52.991Z,19.70
2018-08-22T06:17:20.714Z,19.80
2018-08-22T06:19:48.209Z,19.90
2018-08-22T06:22:15.769Z,19.90
2018-08-22T06:24:43.125Z,19.80
2018-08-22T06:27:10.405Z,19.90
2018-08-22T06:29:37.719Z,19.90
2018-08-22T06:32:05.103Z,20.00
2018-08-22T06:34:32.414Z,20.10
2018-08-22T06:36:59.713Z,20.10
2018-08-22T06:39:26.994Z,20.20
2018-08-22T06:41:54.288Z,20.20
2018-08-22T06:44:21.724Z,20.30
2018-08-22T06:46:48.910Z,20.40
2018-08-22T06:49:16.242Z,20.50
2018-08-22T06:51:43.520Z,20.50
2018-08-22T06:54:10.993Z,20.70
2018-08-22T06:56:38.271Z,20.70
2018-08-22T06:59:05.582Z,20.80
2018-08-22T07:01:32.868Z,20.80
2018-08-22T07:04:00.186Z,20.70
2018-08-22T07:06:27.497Z,20.80
2018-08-22T07:08:54.829Z,20.90
2018-08-22T07:11:22.138Z,21.10
2018-08-22T07:13:49.563Z,21.20
2018-08-22T07:16:16.878Z,21.30
2018-08-22T07:18:44.145Z,21.40
2018-08-22T07:21:11.429Z,21.40
2018-08-22T07:23:38.717Z,21.40
2018-08-22T07:26:06.022Z,21.40
2018-08-22T07:28:33.354Z,21.40
2018-08-22T07:31:00.673Z,21.50
2018-08-22T07:33:27.959Z,21.60
2018-08-22T07:35:55.380Z,21.70
2018-08-22T07:38:22.575Z,21.70
2018-08-22T07:40:50.008Z,21.80
2018-08-22T07:43:17.326Z,21.90
2018-08-22T07:45:44.707Z,22.00
2018-08-22T07:48:12.006Z,21.90
2018-08-22T07:50:39.294Z,22.00
2018-08-22T07:53:06.608Z,22.00
2018-08-22T07:55:35.782Z,22.10
2018-08-22T07:58:03.439Z,22.20
2018-08-22T08:00:42.586Z,22.20
2018-08-22T08:03:09.952Z,22.40
2018-08-22T08:05:37.286Z,22.40
2018-08-22T08:08:04.672Z,22.50
2018-08-22T08:10:34.818Z,22.60
2018-08-22T08:13:02.865Z,22.70
2018-08-22T08:15:30.146Z,22.80
2018-08-22T08:17:57.818Z,22.80
2018-08-22T08:20:25.117Z,22.80
2018-08-22T08:22:52.478Z,22.90
2018-08-22T08:25:19.952Z,23.10
2018-08-22T08:27:47.225Z,23.10
2018-08-22T08:30:14.507Z,23.20
2018-08-22T08:32:41.807Z,23.20
2018-08-22T08:35:09.102Z,23.40
2018-08-22T08:37:36.386Z,23.40
2018-08-22T08:40:03.826Z,23.50
2018-08-22T08:42:31.146Z,23.60
2018-08-22T08:44:58.419Z,23.70
2018-08-22T08:47:25.872Z,23.70
2018-08-22T08:49:53.290Z,23.80
2018-08-22T08:52:20.543Z,23.90
2018-08-22T08:54:47.886Z,23.90
2018-08-22T08:57:15.175Z,23.90
2018-08-22T08:59:42.438Z,24.00
2018-08-22T09:02:09.681Z,24.10
2018-08-22T09:04:36.947Z,24.20
2018-08-22T09:07:04.237Z,24.30
2018-08-22T09:09:31.509Z,24.30
2018-08-22T09:11:59.956Z,24.40
2018-08-22T09:14:27.619Z,24.50
2018-08-22T09:16:55.354Z,24.50
2018-08-22T09:19:22.673Z,24.70
2018-08-22T09:21:49.951Z,24.80
2018-08-22T09:24:17.337Z,24.90
2018-08-22T09:26:44.602Z,25.00
2018-08-22T09:29:12.674Z,25.00
2018-08-22T09:31:39.982Z,25.00
2018-08-22T09:34:07.443Z,25.10
2018-08-22T09:36:34.909Z,25.20
2018-08-22T09:39:02.766Z,25.30
2018-08-22T09:41:30.018Z,25.40
2018-08-22T09:43:57.321Z,25.50
2018-08-22T09:46:24.622Z,25.70
2018-08-22T09:48:51.929Z,25.70
2018-08-22T09:51:19.174Z,25.80
2018-08-22T09:53:46.466Z,25.90
2018-08-22T09:56:13.837Z,25.90
2018-08-22T09:58:41.141Z,25.90
2018-08-22T10:01:14.330Z,26.20
2018-08-22T10:03:51.186Z,26.50
2018-08-22T10:06:37.950Z,26.60
2018-08-22T10:09:15.187Z,26.80
2018-08-22T10:11:42.591Z,26.80
2018-08-22T10:14:09.994Z,26.80
2018-08-22T10:16:37.340Z,26.90
2018-08-22T10:19:04.744Z,27.00
2018-08-22T10:21:32.017Z,27.10
2018-08-22T10:23:59.310Z,27.10
2018-08-22T10:26:26.586Z,27.30
2018-08-22T10:28:54.033Z,27.40
2018-08-22T10:31:21.994Z,27.50
2018-08-22T10:33:49.264Z,27.50
2018-08-22T10:36:16.562Z,27.50
2018-08-22T10:38:43.988Z,27.60
2018-08-22T10:41:11.298Z,27.70
2018-08-22T10:43:38.705Z,27.70
2018-08-22T10:46:06.395Z,27.70
2018-08-22T10:48:33.726Z,27.70
2018-08-22T10:51:01.111Z,27.80
2018-08-22T10:53:28.390Z,27.90
2018-08-22T10:55:55.812Z,28.00
2018-08-22T10:58:23.100Z,28.10
2018-08-22T11:00:50.443Z,28.20
2018-08-22T11:03:17.739Z,28.30
2018-08-22T11:05:45.126Z,28.30
2018-08-22T11:08:12.427Z,28.30
2018-08-22T11:10:39.751Z,28.30
2018-08-22T11:13:07.050Z,28.20
2018-08-22T11:15:34.325Z,28.30
2018-08-22T11:18:01.646Z,28.40
2018-08-22T11:20:29.933Z,28.40
2018-08-22T11:23:08.768Z,28.40
2018-08-22T11:25:47.434Z,28.40
2018-08-22T11:28:26.312Z,28.50
2018-08-22T11:31:05.142Z,28.50
2018-08-22T11:33:44.055Z,28.60
2018-08-22T11:36:10.367Z,28.70
2018-08-22T11:38:37.671Z,28.80
2018-08-22T11:41:04.998Z,28.80
2018-08-22T11:43:32.301Z,28.80
2018-08-22T11:45:59.634Z,28.80
2018-08-22T11:48:26.937Z,28.80
2018-08-22T11:50:54.234Z,28.80
2018-08-22T11:53:21.625Z,28.80
2018-08-22T11:55:48.965Z,28.80
2018-08-22T11:58:16.354Z,28.80
2018-08-22T12:00:43.746Z,28.70
2018-08-22T12:03:11.054Z,28.80
2018-08-22T12:05:38.374Z,28.80
2018-08-22T12:08:05.652Z,28.90
2018-08-22T12:10:33.077Z,28.90
2018-08-22T12:13:02.006Z,29.00
2018-08-22T12:15:29.274Z,29.10
2018-08-22T12:17:57.399Z,29.10
2018-08-22T12:20:24.698Z,29.10
2018-08-22T12:22:52.033Z,29.20
2018-08-22T12:25:19.328Z,29.10
2018-08-22T12:27:46.595Z,29.00
2018-08-22T12:30:14.017Z,29.10
2018-08-22T12:32:41.442Z,29.10
2018-08-22T12:35:08.817Z,29.00
2018-08-22T12:37:36.232Z,29.00
2018-08-22T12:40:04.397Z,29.00
2018-08-22T12:42:31.670Z,29.00
2018-08-22T12:44:58.931Z,29.10
2018-08-22T12:47:26.224Z,29.10
2018-08-22T12:49:53.493Z,29.10
2018-08-22T12:52:20.806Z,29.20
2018-08-22T12:54:48.082Z,29.30
2018-08-22T12:57:15.413Z,29.30
2018-08-22T12:59:42.678Z,29.30
2018-08-22T13:02:09.958Z,29.40
2018-08-22T13:04:37.273Z,29.40
2018-08-22T13:07:04.563Z,29.50
2018-08-22T13:09:31.858Z,29.50
2018-08-22T13:11:59.116Z,29.40
2018-08-22T13:14:26.442Z,29.40
2018-08-22T13:16:53.737Z,29.30
2018-08-22T13:19:21.026Z,29.30
2018-08-22T13:21:48.341Z,29.30
2018-08-22T13:24:15.639Z,29.40
2018-08-22T13:26:42.882Z,29.40
2018-08-22T13:29:10.196Z,29.40
2018-08-22T13:31:37.547Z,29.30
2018-08-22T13:34:05.046Z,29.20
2018-08-22T13:36:32.476Z,29.20
2018-08-22T13:38:59.781Z,29.10
2018-08-22T13:41:27.051Z,29.10
2018-08-22T13:43:54.383Z,29.00
2018-08-22T13:46:21.705Z,29.10
2018-08-22T13:48:48.954Z,29.20
2018-08-22T13:51:16.299Z,29.30
2018-08-22T13:53:43.574Z,29.30
2018-08-22T13:56:11.011Z,29.40
2018-08-22T13:58:38.226Z,29.40
2018-08-22T14:01:05.555Z,29.50
2018-08-22T14:03:32.827Z,29.60
2018-08-22T14:06:00.209Z,29.70
2018-08-22T14:08:27.528Z,29.70
2018-08-22T14:10:54.872Z,29.70
2018-08-22T14:13:22.198Z,29.80
2018-08-22T14:15:49.518Z,29.90
2018-08-22T14:18:16.794Z,30.00
2018-08-22T14:20:44.063Z,30.00
2018-08-22T14:23:11.377Z,30.00
2018-08-22T14:25:38.851Z,30.00
2018-08-22T14:28:06.249Z,30.00
2018-08-22T14:30:33.501Z,30.00
2018-08-22T14:33:00.803Z,30.00
2018-08-22T14:35:28.098Z,29.90
2018-08-22T14:37:55.382Z,29.90
2018-08-22T14:40:22.750Z,29.80
2018-08-22T14:42:50.092Z,29.70
2018-08-22T14:45:17.367Z,29.70
2018-08-22T14:47:44.671Z,29.60
2018-08-22T14:50:12.127Z,29.60
2018-08-22T14:52:39.421Z,29.60
2018-08-22T14:55:06.733Z,29.70
2018-08-22T14:57:34.010Z,29.70
2018-08-22T15:00:01.794Z,29.80
2018-08-22T15:02:29.154Z,29.70
2018-08-22T15:04:56.383Z,29.60
2018-08-22T15:07:23.673Z,29.60
2018-08-22T15:09:50.978Z,29.50
2018-08-22T15:12:18.278Z,29.50
2018-08-22T15:14:45.559Z,29.50
2018-08-22T15:17:12.890Z,29.50
2018-08-22T15:19:40.180Z,29.40
2018-08-22T15:22:07.481Z,29.30
2018-08-22T15:24:34.741Z,29.40
2018-08-22T15:27:02.051Z,29.30
2018-08-22T15:29:29.342Z,29.30
2018-08-22T15:31:56.799Z,29.30
2018-08-22T15:34:34.246Z,29.20
2018-08-22T15:37:01.628Z,29.30
2018-08-22T15:39:28.901Z,29.20
2018-08-22T15:41:56.289Z,29.30
2018-08-22T15:44:23.559Z,29.40
2018-08-22T15:46:50.890Z,29.50
2018-08-22T15:49:18.226Z,29.60
2018-08-22T15:51:45.491Z,29.70
2018-08-22T15:54:14.306Z,29.80
2018-08-22T15:56:42.001Z,29.80
2018-08-22T15:59:10.006Z,29.80
2018-08-22T16:01:37.587Z,29.80
2018-08-22T16:04:04.993Z,29.80
2018-08-22T16:06:32.411Z,29.70
2018-08-22T16:08:59.691Z,29.70
2018-08-22T16:11:26.973Z,29.60
2018-08-22T16:13:54.311Z,29.60
2018-08-22T16:16:21.606Z,29.50
2018-08-22T16:18:48.890Z,29.50
2018-08-22T16:21:16.307Z,29.50
2018-08-22T16:23:43.590Z,29.50
2018-08-22T16:26:10.889Z,29.60
2018-08-22T16:28:51.206Z,29.70
2018-08-22T16:31:18.655Z,29.60
2018-08-22T16:33:45.941Z,29.70
2018-08-22T16:36:19.602Z,29.70
2018-08-22T16:38:46.949Z,29.80
2018-08-22T16:41:15.217Z,29.80
2018-08-22T16:43:43.530Z,29.90
2018-08-22T16:46:12.746Z,29.90
2018-08-22T16:48:40.998Z,29.90
2018-08-22T16:51:08.291Z,30.00
2018-08-22T16:53:35.710Z,30.00
2018-08-22T16:56:03.082Z,30.00
2018-08-22T16:58:30.367Z,30.00
2018-08-22T17:00:57.673Z,30.00
2018-08-22T17:03:25.161Z,30.00
2018-08-22T17:05:59.753Z,30.00
2018-08-22T17:08:27.766Z,30.00
2018-08-22T17:10:57.148Z,30.00
2018-08-22T17:13:36.648Z,30.00
2018-08-22T17:16:04.167Z,30.00
2018-08-22T17:18:31.446Z,29.90
2018-08-22T17:20:58.766Z,29.90
2018-08-22T17:23:26.059Z,29.80
2018-08-22T17:25:53.371Z,29.70
2018-08-22T17:28:26.279Z,29.70
2018-08-22T17:30:53.575Z,29.70
2018-08-22T17:33:23.851Z,29.60
2018-08-22T17:35:55.854Z,29.60
2018-08-22T17:38:23.171Z,29.50
2018-08-22T17:40:50.453Z,29.50
2018-08-22T17:43:17.730Z,29.50
2018-08-22T17:45:45.062Z,29.40
2018-08-22T17:48:12.362Z,29.40
2018-08-22T17:50:39.638Z,29.30
2018-08-22T17:53:08.139Z,29.30
2018-08-22T17:55:35.818Z,29.20
2018-08-22T17:58:03.186Z,29.20
2018-08-22T18:00:32.590Z,29.10
2018-08-22T18:02:59.891Z,29.10
2018-08-22T18:05:28.655Z,29.00
2018-08-22T18:07:55.984Z,28.90
2018-08-22T18:10:23.266Z,28.80
2018-08-22T18:12:50.629Z,28.70
2018-08-22T18:15:17.895Z,28.60
2018-08-22T18:17:47.496Z,28.50
2018-08-22T18:20:14.802Z,28.40
2018-08-22T18:22:42.118Z,28.20
2018-08-22T18:25:09.391Z,28.10
2018-08-22T18:27:36.694Z,27.90
2018-08-22T18:30:04.054Z,27.70
2018-08-22T18:32:31.391Z,27.70
2018-08-22T18:35:01.065Z,27.60
2018-08-22T18:37:29.268Z,27.50
2018-08-22T18:40:15.778Z,27.30
2018-08-22T18:42:45.790Z,27.10
2018-08-22T18:45:13.142Z,26.90
2018-08-22T18:47:40.467Z,26.80
2018-08-22T18:50:07.779Z,26.70
2018-08-22T18:52:35.135Z,26.60
2018-08-22T18:55:02.750Z,26.50
2018-08-22T18:57:30.042Z,26.30
2018-08-22T18:59:57.398Z,26.30
2018-08-22T19:02:25.050Z,26.20
2018-08-22T19:04:52.408Z,26.10
2018-08-22T19:07:19.683Z,26.00
2018-08-22T19:09:47.011Z,25.90
2018-08-22T19:12:14.354Z,25.70
2018-08-22T19:14:42.723Z,25.70
2018-08-22T19:17:10.375Z,25.60
2018-08-22T19:19:42.569Z,25.50
2018-08-22T19:22:09.895Z,25.50
2018-08-22T19:24:37.237Z,25.50
2018-08-22T19:27:05.554Z,25.40
2018-08-22T19:29:33.466Z,25.30
2018-08-22T19:32:00.865Z,25.20
2018-08-22T19:34:28.311Z,25.10
2018-08-22T19:36:55.617Z,25.00
2018-08-22T19:39:23.013Z,24.90
2018-08-22T19:41:50.331Z,24.80
2018-08-22T19:44:17.647Z,24.70
2018-08-22T19:46:44.938Z,24.60
2018-08-22T19:49:12.254Z,24.50
2018-08-22T19:51:39.590Z,24.40
2018-08-22T19:54:07.883Z,24.40
2018-08-22T19:56:35.243Z,24.30
2018-08-22T19:59:03.207Z,24.20
2018-08-22T20:01:32.117Z,24.20
2018-08-22T20:03:59.465Z,24.20
2018-08-22T20:06:26.906Z,24.00
2018-08-22T20:08:55.554Z,24.00
2018-08-22T20:11:23.137Z,24.10
2018-08-22T20:13:55.855Z,24.00
2018-08-22T20:16:23.684Z,23.90
2018-08-22T20:18:53.005Z,23.80
2018-08-22T20:21:25.933Z,23.70
2018-08-22T20:23:54.017Z,23.60
2018-08-22T20:26:21.677Z,23.50
2018-08-22T20:28:56.220Z,23.50
2018-08-22T20:31:23.616Z,23.50
2018-08-22T20:34:04.658Z,23.30
2018-08-22T20:36:32.102Z,23.30
2018-08-22T20:39:02.470Z,23.40
2018-08-22T20:41:29.758Z,23.30
2018-08-22T20:43:57.037Z,23.30
2018-08-22T20:46:24.335Z,23.20
2018-08-22T20:48:51.716Z,23.10
2018-08-22T20:51:19.030Z,23.10
2018-08-22T20:53:47.622Z,23.10
2018-08-22T20:56:14.923Z,23.00
2018-08-22T20:58:42.261Z,22.90
2018-08-22T21:01:09.561Z,22.80
2018-08-22T21:03:36.907Z,22.80
2018-08-22T21:06:08.098Z,22.70
2018-08-22T21:08:35.478Z,22.60
2018-08-22T21:11:02.782Z,22.60
2018-08-22T21:13:30.110Z,22.60
2018-08-22T21:15:58.081Z,22.60
2018-08-22T21:18:25.532Z,22.50
2018-08-22T21:20:53.023Z,22.50
2018-08-22T21:23:20.367Z,22.40
2018-08-22T21:25:47.689Z,22.30
2018-08-22T21:28:15.058Z,22.30
2018-08-22T21:30:49.837Z,22.30
2018-08-22T21:33:17.160Z,22.30
2018-08-22T21:35:44.466Z,22.20
2018-08-22T21:38:17.766Z,22.10
2018-08-22T21:40:45.103Z,22.00
2018-08-22T21:43:12.407Z,22.00
2018-08-22T21:45:39.917Z,22.00
2018-08-22T21:48:14.418Z,22.00
2018-08-22T21:50:42.435Z,21.90
2018-08-22T21:53:09.782Z,22.00
2018-08-22T21:55:38.983Z,22.00
2018-08-22T21:58:07.120Z,22.00
2018-08-22T22:00:34.509Z,21.80
2018-08-22T22:03:01.915Z,21.80
2018-08-22T22:05:40.666Z,21.80
2018-08-22T22:08:08.214Z,21.80
2018-08-22T22:10:35.678Z,21.70
2018-08-22T22:13:02.982Z,21.70
2018-08-22T22:15:35.906Z,21.70
2018-08-22T22:18:03.488Z,21.70
2018-08-22T22:20:30.773Z,21.60
2018-08-22T22:22:58.171Z,21.50
2018-08-22T22:25:25.444Z,21.50
2018-08-22T22:27:52.758Z,21.40
2018-08-22T22:30:20.036Z,21.30
2018-08-22T22:32:47.367Z,21.20
2018-08-22T22:35:16.869Z,21.20
2018-08-22T22:37:44.244Z,21.10
2018-08-22T22:40:11.546Z,21.00
2018-08-22T22:42:38.987Z,21.00
2018-08-22T22:45:06.293Z,21.00
2018-08-22T22:47:34.270Z,20.90
2018-08-22T22:50:02.502Z,20.90
2018-08-22T22:52:34.581Z,20.90
2018-08-22T22:55:03.165Z,20.90
2018-08-22T22:57:31.822Z,20.80
2018-08-22T22:59:59.946Z,20.80
2018-08-22T23:02:27.653Z,20.70
2018-08-22T23:04:56.027Z,20.70
2018-08-22T23:07:24.682Z,20.70
2018-08-22T23:09:53.284Z,20.60
2018-08-22T23:12:51.534Z,20.60
2018-08-22T23:15:21.788Z,20.70
2018-08-22T23:17:51.612Z,20.60
2018-08-22T23:20:30.279Z,20.60
2018-08-22T23:22:57.710Z,20.50
2018-08-22T23:25:25.402Z,20.40
2018-08-22T23:27:52.721Z,20.40
2018-08-22T23:30:22.199Z,20.30
2018-08-22T23:32:49.578Z,20.30
2018-08-22T23:35:26.201Z,20.30
2018-08-22T23:37:54.664Z,20.30
2018-08-22T23:40:23.103Z,20.30
2018-08-22T23:42:50.378Z,20.30
2018-08-22T23:45:17.682Z,20.30
2018-08-22T23:47:45.052Z,20.20
2018-08-22T23:50:12.362Z,20.10
2018-08-22T23:52:45.383Z,20.10
2018-08-22T23:55:12.634Z,20.00
2018-08-22T23:57:39.934Z,19.90
